sensor_id;sensor_type;location;lat;lon;timestamp;P1;durP1;ratioP1;P2;durP2;ratioP2
801;SDS011;383;48.766;9.270;2024-02-26T00:02:11;3.65;;;1.60;;
801;SDS011;383;48.766;9.270;2024-02-26T00:04:38;3.10;;;2.55;;
801;SDS011;383;48.766;9.270;2024-02-26T00:07:05;2.58;;;1.92;;
801;SDS011;383;48.766;9.270;2024-02-26T00:09:33;4.50;;;1.70;;
801;SDS011;383;48.766;9.270;2024-02-26T00:12:02;1.80;;;1.70;;
801;SDS011;383;48.766;9.270;2024-02-26T00:14:29;1.85;;;1.35;;
801;SDS011;383;48.766;9.270;2024-02-26T00:16:56;1.65;;;1.30;;
801;SDS011;383;48.766;9.270;2024-02-26T00:19:23;5.72;;;2.03;;
801;SDS011;383;48.766;9.270;2024-02-26T00:21:50;2.63;;;1.75;;
801;SDS011;383;48.766;9.270;2024-02-26T00:24:18;3.42;;;1.73;;
801;SDS011;383;48.766;9.270;2024-02-26T00:26:47;4.80;;;1.75;;
801;SDS011;383;48.766;9.270;2024-02-26T00:29:18;1.90;;;1.85;;
801;SDS011;383;48.766;9.270;2024-02-26T00:31:45;3.15;;;1.70;;
801;SDS011;383;48.766;9.270;2024-02-26T00:34:12;3.05;;;1.60;;
801;SDS011;383;48.766;9.270;2024-02-26T00:36:38;2.22;;;1.40;;
801;SDS011;383;48.766;9.270;2024-02-26T00:39:06;2.08;;;1.88;;
801;SDS011;383;48.766;9.270;2024-02-26T00:41:33;2.50;;;1.48;;
801;SDS011;383;48.766;9.270;2024-02-26T00:44:01;2.47;;;1.50;;
801;SDS011;383;48.766;9.270;2024-02-26T00:46:28;2.00;;;1.30;;
801;SDS011;383;48.766;9.270;2024-02-26T00:48:55;5.72;;;1.95;;
801;SDS011;383;48.766;9.270;2024-02-26T00:51:22;2.30;;;2.13;;
801;SDS011;383;48.766;9.270;2024-02-26T00:53:49;2.25;;;1.73;;
801;SDS011;383;48.766;9.270;2024-02-26T00:56:16;2.25;;;1.52;;
801;SDS011;383;48.766;9.270;2024-02-26T00:58:43;2.78;;;1.42;;
801;SDS011;383;48.766;9.270;2024-02-26T01:01:11;2.75;;;2.25;;
801;SDS011;383;48.766;9.270;2024-02-26T01:03:38;2.08;;;1.83;;
801;SDS011;383;48.766;9.270;2024-02-26T01:06:05;2.17;;;1.65;;
801;SDS011;383;48.766;9.270;2024-02-26T01:08:32;3.53;;;2.10;;
801;SDS011;383;48.766;9.270;2024-02-26T01:11:00;3.67;;;1.70;;
801;SDS011;383;48.766;9.270;2024-02-26T01:13:27;1.88;;;1.55;;
801;SDS011;383;48.766;9.270;2024-02-26T01:15:54;2.30;;;1.45;;
801;SDS011;383;48.766;9.270;2024-02-26T01:18:23;5.38;;;2.40;;
801;SDS011;383;48.766;9.270;2024-02-26T01:20:50;3.60;;;1.90;;
801;SDS011;383;48.766;9.270;2024-02-26T01:23:19;3.30;;;2.00;;
801;SDS011;383;48.766;9.270;2024-02-26T01:25:46;3.88;;;2.67;;
801;SDS011;383;48.766;9.270;2024-02-26T01:28:13;4.32;;;1.80;;
801;SDS011;383;48.766;9.270;2024-02-26T01:30:40;2.42;;;1.73;;
801;SDS011;383;48.766;9.270;2024-02-26T01:33:07;6.50;;;2.10;;
801;SDS011;383;48.766;9.270;2024-02-26T01:35:36;4.38;;;2.22;;
801;SDS011;383;48.766;9.270;2024-02-26T01:38:03;3.90;;;2.17;;
801;SDS011;383;48.766;9.270;2024-02-26T01:40:30;4.10;;;2.30;;
801;SDS011;383;48.766;9.270;2024-02-26T01:42:58;4.80;;;1.73;;
801;SDS011;383;48.766;9.270;2024-02-26T01:45:26;3.20;;;1.98;;
801;SDS011;383;48.766;9.270;2024-02-26T01:47:53;3.63;;;2.13;;
801;SDS011;383;48.766;9.270;2024-02-26T01:50:21;5.32;;;1.83;;
801;SDS011;383;48.766;9.270;2024-02-26T01:52:50;2.72;;;2.05;;
801;SDS011;383;48.766;9.270;2024-02-26T01:55:17;3.65;;;1.50;;
801;SDS011;383;48.766;9.270;2024-02-26T01:57:45;5.15;;;2.17;;
801;SDS011;383;48.766;9.270;2024-02-26T02:00:13;3.53;;;1.70;;
801;SDS011;383;48.766;9.270;2024-02-26T02:02:41;2.65;;;2.13;;
801;SDS011;383;48.766;9.270;2024-02-26T02:05:11;7.03;;;1.95;;
801;SDS011;383;48.766;9.270;2024-02-26T02:07:39;1.80;;;1.60;;
801;SDS011;383;48.766;9.270;2024-02-26T02:10:09;2.20;;;1.52;;
801;SDS011;383;48.766;9.270;2024-02-26T02:12:36;2.85;;;1.70;;
801;SDS011;383;48.766;9.270;2024-02-26T02:15:05;2.65;;;2.35;;
801;SDS011;383;48.766;9.270;2024-02-26T02:17:32;2.08;;;1.80;;
801;SDS011;383;48.766;9.270;2024-02-26T02:19:59;3.60;;;1.90;;
801;SDS011;383;48.766;9.270;2024-02-26T02:22:28;2.08;;;1.83;;
801;SDS011;383;48.766;9.270;2024-02-26T02:24:57;2.50;;;1.90;;
801;SDS011;383;48.766;9.270;2024-02-26T02:27:24;2.33;;;1.70;;
801;SDS011;383;48.766;9.270;2024-02-26T02:29:52;8.25;;;2.40;;
801;SDS011;383;48.766;9.270;2024-02-26T02:32:19;2.33;;;2.00;;
801;SDS011;383;48.766;9.270;2024-02-26T02:34:46;2.72;;;1.88;;
801;SDS011;383;48.766;9.270;2024-02-26T02:37:13;1.85;;;1.70;;
801;SDS011;383;48.766;9.270;2024-02-26T02:39:41;2.00;;;1.67;;
801;SDS011;383;48.766;9.270;2024-02-26T02:42:08;3.28;;;2.35;;
801;SDS011;383;48.766;9.270;2024-02-26T02:44:36;5.05;;;2.28;;
801;SDS011;383;48.766;9.270;2024-02-26T02:47:03;2.65;;;1.70;;
801;SDS011;383;48.766;9.270;2024-02-26T02:49:30;1.92;;;1.85;;
801;SDS011;383;48.766;9.270;2024-02-26T02:51:57;5.32;;;2.63;;
801;SDS011;383;48.766;9.270;2024-02-26T02:54:24;1.90;;;1.80;;
801;SDS011;383;48.766;9.270;2024-02-26T02:56:52;2.10;;;1.67;;
801;SDS011;383;48.766;9.270;2024-02-26T02:59:19;2.20;;;2.05;;
801;SDS011;383;48.766;9.270;2024-02-26T03:01:46;2.53;;;1.90;;
801;SDS011;383;48.766;9.270;2024-02-26T03:04:13;2.85;;;1.90;;
801;SDS011;383;48.766;9.270;2024-02-26T03:06:40;1.65;;;1.55;;
801;SDS011;383;48.766;9.270;2024-02-26T03:09:07;5.63;;;1.75;;
801;SDS011;383;48.766;9.270;2024-02-26T03:11:34;5.70;;;2.05;;
801;SDS011;383;48.766;9.270;2024-02-26T03:14:02;3.65;;;2.40;;
801;SDS011;383;48.766;9.270;2024-02-26T03:16:30;2.65;;;1.80;;
801;SDS011;383;48.766;9.270;2024-02-26T03:18:57;3.83;;;2.05;;
801;SDS011;383;48.766;9.270;2024-02-26T03:21:24;1.65;;;1.50;;
801;SDS011;383;48.766;9.270;2024-02-26T03:23:51;3.05;;;2.00;;
801;SDS011;383;48.766;9.270;2024-02-26T03:26:18;4.55;;;2.05;;
801;SDS011;383;48.766;9.270;2024-02-26T03:28:46;3.47;;;1.83;;
801;SDS011;383;48.766;9.270;2024-02-26T03:31:14;3.45;;;2.00;;
801;SDS011;383;48.766;9.270;2024-02-26T03:33:41;3.78;;;2.60;;
801;SDS011;383;48.766;9.270;2024-02-26T03:36:08;2.22;;;1.55;;
801;SDS011;383;48.766;9.270;2024-02-26T03:38:36;2.15;;;1.80;;
801;SDS011;383;48.766;9.270;2024-02-26T03:41:03;6.00;;;1.63;;
801;SDS011;383;48.766;9.270;2024-02-26T03:43:31;6.55;;;2.38;;
801;SDS011;383;48.766;9.270;2024-02-26T03:45:58;2.67;;;2.05;;
801;SDS011;383;48.766;9.270;2024-02-26T03:48:26;9.85;;;2.85;;
801;SDS011;383;48.766;9.270;2024-02-26T03:50:53;2.72;;;2.00;;
801;SDS011;383;48.766;9.270;2024-02-26T03:53:20;6.18;;;2.28;;
801;SDS011;383;48.766;9.270;2024-02-26T03:55:47;5.13;;;1.85;;
801;SDS011;383;48.766;9.270;2024-02-26T03:58:17;8.32;;;2.15;;
801;SDS011;383;48.766;9.270;2024-02-26T04:00:44;3.20;;;2.17;;
801;SDS011;383;48.766;9.270;2024-02-26T04:03:12;7.30;;;2.25;;
801;SDS011;383;48.766;9.270;2024-02-26T04:05:40;4.28;;;2.40;;
801;SDS011;383;48.766;9.270;2024-02-26T04:08:07;3.45;;;2.40;;
801;SDS011;383;48.766;9.270;2024-02-26T04:10:35;8.82;;;2.70;;
801;SDS011;383;48.766;9.270;2024-02-26T04:13:04;3.78;;;2.25;;
801;SDS011;383;48.766;9.270;2024-02-26T04:15:31;2.60;;;1.60;;
801;SDS011;383;48.766;9.270;2024-02-26T04:17:58;4.35;;;2.40;;
801;SDS011;383;48.766;9.270;2024-02-26T04:20:25;3.88;;;2.35;;
801;SDS011;383;48.766;9.270;2024-02-26T04:22:53;2.10;;;1.95;;
801;SDS011;383;48.766;9.270;2024-02-26T04:25:20;5.18;;;3.13;;
801;SDS011;383;48.766;9.270;2024-02-26T04:27:47;4.35;;;2.63;;
801;SDS011;383;48.766;9.270;2024-02-26T04:30:14;7.30;;;3.15;;
801;SDS011;383;48.766;9.270;2024-02-26T04:32:43;3.15;;;2.45;;
801;SDS011;383;48.766;9.270;2024-02-26T04:35:10;3.00;;;1.75;;
801;SDS011;383;48.766;9.270;2024-02-26T04:37:37;2.60;;;1.90;;
801;SDS011;383;48.766;9.270;2024-02-26T04:40:06;3.60;;;2.35;;
801;SDS011;383;48.766;9.270;2024-02-26T04:42:33;2.83;;;2.10;;
801;SDS011;383;48.766;9.270;2024-02-26T04:45:00;5.20;;;2.42;;
801;SDS011;383;48.766;9.270;2024-02-26T04:47:27;6.40;;;2.50;;
801;SDS011;383;48.766;9.270;2024-02-26T04:49:55;2.25;;;1.90;;
801;SDS011;383;48.766;9.270;2024-02-26T04:52:22;2.17;;;1.58;;
801;SDS011;383;48.766;9.270;2024-02-26T04:54:49;6.97;;;2.33;;
801;SDS011;383;48.766;9.270;2024-02-26T04:57:17;3.25;;;2.13;;
801;SDS011;383;48.766;9.270;2024-02-26T04:59:44;2.47;;;2.10;;
801;SDS011;383;48.766;9.270;2024-02-26T05:02:11;1.92;;;1.83;;
801;SDS011;383;48.766;9.270;2024-02-26T05:04:38;1.77;;;1.70;;
801;SDS011;383;48.766;9.270;2024-02-26T05:07:05;2.97;;;1.70;;
801;SDS011;383;48.766;9.270;2024-02-26T05:09:32;5.00;;;1.80;;
801;SDS011;383;48.766;9.270;2024-02-26T05:12:00;3.95;;;2.15;;
801;SDS011;383;48.766;9.270;2024-02-26T05:14:28;2.60;;;2.42;;
801;SDS011;383;48.766;9.270;2024-02-26T05:16:55;5.25;;;2.50;;
801;SDS011;383;48.766;9.270;2024-02-26T05:19:22;3.33;;;2.35;;
801;SDS011;383;48.766;9.270;2024-02-26T05:21:49;4.05;;;2.20;;
801;SDS011;383;48.766;9.270;2024-02-26T05:24:16;1.98;;;1.88;;
801;SDS011;383;48.766;9.270;2024-02-26T05:26:47;4.90;;;2.80;;
801;SDS011;383;48.766;9.270;2024-02-26T05:29:14;6.50;;;3.03;;
801;SDS011;383;48.766;9.270;2024-02-26T05:31:43;3.40;;;2.30;;
801;SDS011;383;48.766;9.270;2024-02-26T05:34:10;5.40;;;3.08;;
801;SDS011;383;48.766;9.270;2024-02-26T05:36:37;2.53;;;2.10;;
801;SDS011;383;48.766;9.270;2024-02-26T05:39:04;3.05;;;2.30;;
801;SDS011;383;48.766;9.270;2024-02-26T05:41:32;4.50;;;2.50;;
801;SDS011;383;48.766;9.270;2024-02-26T05:43:59;3.28;;;2.25;;
801;SDS011;383;48.766;9.270;2024-02-26T05:46:26;3.17;;;2.25;;
801;SDS011;383;48.766;9.270;2024-02-26T05:48:54;3.10;;;2.38;;
801;SDS011;383;48.766;9.270;2024-02-26T05:51:21;2.22;;;1.88;;
801;SDS011;383;48.766;9.270;2024-02-26T05:53:48;3.53;;;2.75;;
801;SDS011;383;48.766;9.270;2024-02-26T05:56:19;4.95;;;2.97;;
801;SDS011;383;48.766;9.270;2024-02-26T05:58:46;2.88;;;2.30;;
801;SDS011;383;48.766;9.270;2024-02-26T06:01:14;3.17;;;2.45;;
801;SDS011;383;48.766;9.270;2024-02-26T06:03:42;3.90;;;2.90;;
801;SDS011;383;48.766;9.270;2024-02-26T06:06:10;4.05;;;3.03;;
801;SDS011;383;48.766;9.270;2024-02-26T06:08:38;7.93;;;3.15;;
801;SDS011;383;48.766;9.270;2024-02-26T06:11:05;5.57;;;2.67;;
801;SDS011;383;48.766;9.270;2024-02-26T06:13:32;5.57;;;3.17;;
801;SDS011;383;48.766;9.270;2024-02-26T06:15:59;6.35;;;3.00;;
801;SDS011;383;48.766;9.270;2024-02-26T06:18:27;3.22;;;2.58;;
801;SDS011;383;48.766;9.270;2024-02-26T06:20:54;4.00;;;3.00;;
801;SDS011;383;48.766;9.270;2024-02-26T06:23:22;4.85;;;2.65;;
801;SDS011;383;48.766;9.270;2024-02-26T06:25:49;6.20;;;2.80;;
801;SDS011;383;48.766;9.270;2024-02-26T06:28:16;7.70;;;2.95;;
801;SDS011;383;48.766;9.270;2024-02-26T06:30:43;4.28;;;2.47;;
801;SDS011;383;48.766;9.270;2024-02-26T06:33:11;5.90;;;3.05;;
801;SDS011;383;48.766;9.270;2024-02-26T06:35:39;8.95;;;4.10;;
801;SDS011;383;48.766;9.270;2024-02-26T06:38:06;7.72;;;4.18;;
801;SDS011;383;48.766;9.270;2024-02-26T06:40:35;7.85;;;3.63;;
801;SDS011;383;48.766;9.270;2024-02-26T06:43:02;8.30;;;3.60;;
801;SDS011;383;48.766;9.270;2024-02-26T06:45:29;6.18;;;3.08;;
801;SDS011;383;48.766;9.270;2024-02-26T06:47:56;4.90;;;3.70;;
801;SDS011;383;48.766;9.270;2024-02-26T06:50:24;8.15;;;3.45;;
801;SDS011;383;48.766;9.270;2024-02-26T06:52:51;6.05;;;3.42;;
801;SDS011;383;48.766;9.270;2024-02-26T06:55:18;7.18;;;2.80;;
801;SDS011;383;48.766;9.270;2024-02-26T06:57:46;6.45;;;3.40;;
801;SDS011;383;48.766;9.270;2024-02-26T07:00:14;6.20;;;3.20;;
801;SDS011;383;48.766;9.270;2024-02-26T07:02:41;4.22;;;3.30;;
801;SDS011;383;48.766;9.270;2024-02-26T07:05:08;4.38;;;2.90;;
801;SDS011;383;48.766;9.270;2024-02-26T07:07:35;6.03;;;3.25;;
801;SDS011;383;48.766;9.270;2024-02-26T07:10:02;4.07;;;2.35;;
801;SDS011;383;48.766;9.270;2024-02-26T07:12:30;9.35;;;3.55;;
801;SDS011;383;48.766;9.270;2024-02-26T07:14:59;7.85;;;3.05;;
801;SDS011;383;48.766;9.270;2024-02-26T07:17:27;8.48;;;3.42;;
801;SDS011;383;48.766;9.270;2024-02-26T07:19:54;5.20;;;3.42;;
801;SDS011;383;48.766;9.270;2024-02-26T07:22:21;5.75;;;3.78;;
801;SDS011;383;48.766;9.270;2024-02-26T07:24:49;7.35;;;3.75;;
801;SDS011;383;48.766;9.270;2024-02-26T07:27:16;4.07;;;2.53;;
801;SDS011;383;48.766;9.270;2024-02-26T07:29:43;7.10;;;3.40;;
801;SDS011;383;48.766;9.270;2024-02-26T07:32:11;9.98;;;3.70;;
801;SDS011;383;48.766;9.270;2024-02-26T07:34:39;7.60;;;3.03;;
801;SDS011;383;48.766;9.270;2024-02-26T07:37:06;6.65;;;3.72;;
801;SDS011;383;48.766;9.270;2024-02-26T07:39:34;6.15;;;3.45;;
801;SDS011;383;48.766;9.270;2024-02-26T07:42:01;8.07;;;4.35;;
801;SDS011;383;48.766;9.270;2024-02-26T07:44:28;7.95;;;4.35;;
801;SDS011;383;48.766;9.270;2024-02-26T07:46:55;6.38;;;3.63;;
801;SDS011;383;48.766;9.270;2024-02-26T07:49:24;6.95;;;3.83;;
801;SDS011;383;48.766;9.270;2024-02-26T07:51:51;8.15;;;4.40;;
801;SDS011;383;48.766;9.270;2024-02-26T07:54:18;6.00;;;3.85;;
801;SDS011;383;48.766;9.270;2024-02-26T07:56:45;7.30;;;3.47;;
801;SDS011;383;48.766;9.270;2024-02-26T07:59:12;11.68;;;5.10;;
801;SDS011;383;48.766;9.270;2024-02-26T08:01:39;6.75;;;4.75;;
801;SDS011;383;48.766;9.270;2024-02-26T08:04:06;5.75;;;3.55;;
801;SDS011;383;48.766;9.270;2024-02-26T08:06:35;4.97;;;3.60;;
801;SDS011;383;48.766;9.270;2024-02-26T08:09:02;6.13;;;2.97;;
801;SDS011;383;48.766;9.270;2024-02-26T08:11:29;5.50;;;2.60;;
801;SDS011;383;48.766;9.270;2024-02-26T08:13:56;5.80;;;3.10;;
801;SDS011;383;48.766;9.270;2024-02-26T08:16:24;5.50;;;3.10;;
801;SDS011;383;48.766;9.270;2024-02-26T08:18:51;5.20;;;2.92;;
801;SDS011;383;48.766;9.270;2024-02-26T08:21:18;7.82;;;3.40;;
801;SDS011;383;48.766;9.270;2024-02-26T08:23:46;5.25;;;3.53;;
801;SDS011;383;48.766;9.270;2024-02-26T08:26:13;8.35;;;2.70;;
801;SDS011;383;48.766;9.270;2024-02-26T08:28:40;4.43;;;2.90;;
801;SDS011;383;48.766;9.270;2024-02-26T08:31:07;2.72;;;2.50;;
801;SDS011;383;48.766;9.270;2024-02-26T08:33:34;4.30;;;2.92;;
801;SDS011;383;48.766;9.270;2024-02-26T08:36:03;3.92;;;2.72;;
801;SDS011;383;48.766;9.270;2024-02-26T08:38:31;2.35;;;2.15;;
801;SDS011;383;48.766;9.270;2024-02-26T08:41:00;4.05;;;3.50;;
801;SDS011;383;48.766;9.270;2024-02-26T08:43:28;6.85;;;3.70;;
801;SDS011;383;48.766;9.270;2024-02-26T08:45:56;5.28;;;2.85;;
801;SDS011;383;48.766;9.270;2024-02-26T08:48:23;3.45;;;2.90;;
801;SDS011;383;48.766;9.270;2024-02-26T08:50:50;3.95;;;2.75;;
801;SDS011;383;48.766;9.270;2024-02-26T08:53:17;5.28;;;3.55;;
801;SDS011;383;48.766;9.270;2024-02-26T08:55:45;7.90;;;3.42;;
801;SDS011;383;48.766;9.270;2024-02-26T08:58:14;11.38;;;3.92;;
801;SDS011;383;48.766;9.270;2024-02-26T09:00:40;6.90;;;3.28;;
801;SDS011;383;48.766;9.270;2024-02-26T09:03:07;7.30;;;3.20;;
801;SDS011;383;48.766;9.270;2024-02-26T09:05:34;4.68;;;2.75;;
801;SDS011;383;48.766;9.270;2024-02-26T09:08:01;10.95;;;2.45;;
801;SDS011;383;48.766;9.270;2024-02-26T09:10:28;7.82;;;3.10;;
801;SDS011;383;48.766;9.270;2024-02-26T09:12:57;6.07;;;3.08;;
801;SDS011;383;48.766;9.270;2024-02-26T09:15:25;2.95;;;2.47;;
801;SDS011;383;48.766;9.270;2024-02-26T09:17:52;5.93;;;2.65;;
801;SDS011;383;48.766;9.270;2024-02-26T09:20:19;5.20;;;2.50;;
801;SDS011;383;48.766;9.270;2024-02-26T09:22:46;4.25;;;2.30;;
801;SDS011;383;48.766;9.270;2024-02-26T09:25:14;8.32;;;3.63;;
801;SDS011;383;48.766;9.270;2024-02-26T09:27:41;3.35;;;2.33;;
801;SDS011;383;48.766;9.270;2024-02-26T09:30:09;5.03;;;2.90;;
801;SDS011;383;48.766;9.270;2024-02-26T09:32:37;4.18;;;3.00;;
801;SDS011;383;48.766;9.270;2024-02-26T09:35:04;6.13;;;2.70;;
801;SDS011;383;48.766;9.270;2024-02-26T09:37:32;6.43;;;3.40;;
801;SDS011;383;48.766;9.270;2024-02-26T09:40:01;6.77;;;2.70;;
801;SDS011;383;48.766;9.270;2024-02-26T09:42:28;6.60;;;4.07;;
801;SDS011;383;48.766;9.270;2024-02-26T09:44:59;4.67;;;3.23;;
801;SDS011;383;48.766;9.270;2024-02-26T09:47:28;5.10;;;2.30;;
801;SDS011;383;48.766;9.270;2024-02-26T09:49:57;4.13;;;2.93;;
801;SDS011;383;48.766;9.270;2024-02-26T09:52:26;7.37;;;2.60;;
801;SDS011;383;48.766;9.270;2024-02-26T09:54:53;6.57;;;4.17;;
801;SDS011;383;48.766;9.270;2024-02-26T09:57:20;8.00;;;3.50;;
801;SDS011;383;48.766;9.270;2024-02-26T09:59:49;8.40;;;3.13;;
801;SDS011;383;48.766;9.270;2024-02-26T10:02:18;9.50;;;2.97;;
801;SDS011;383;48.766;9.270;2024-02-26T10:04:46;12.60;;;3.57;;
801;SDS011;383;48.766;9.270;2024-02-26T10:07:17;6.83;;;3.80;;
801;SDS011;383;48.766;9.270;2024-02-26T10:09:44;3.90;;;3.10;;
801;SDS011;383;48.766;9.270;2024-02-26T10:12:11;11.20;;;4.63;;
801;SDS011;383;48.766;9.270;2024-02-26T10:14:38;9.07;;;2.90;;
801;SDS011;383;48.766;9.270;2024-02-26T10:17:06;7.33;;;3.40;;
801;SDS011;383;48.766;9.270;2024-02-26T10:19:34;6.77;;;3.17;;
801;SDS011;383;48.766;9.270;2024-02-26T10:22:01;5.73;;;3.80;;
801;SDS011;383;48.766;9.270;2024-02-26T10:24:30;6.80;;;3.40;;
801;SDS011;383;48.766;9.270;2024-02-26T10:26:59;6.43;;;3.07;;
801;SDS011;383;48.766;9.270;2024-02-26T10:29:26;4.93;;;3.03;;
801;SDS011;383;48.766;9.270;2024-02-26T10:31:53;6.60;;;4.13;;
801;SDS011;383;48.766;9.270;2024-02-26T10:34:20;12.30;;;3.87;;
801;SDS011;383;48.766;9.270;2024-02-26T10:36:48;12.00;;;4.07;;
801;SDS011;383;48.766;9.270;2024-02-26T10:39:15;7.40;;;3.60;;
801;SDS011;383;48.766;9.270;2024-02-26T10:41:44;8.60;;;4.43;;
801;SDS011;383;48.766;9.270;2024-02-26T10:44:12;5.33;;;3.43;;
801;SDS011;383;48.766;9.270;2024-02-26T10:46:40;8.90;;;3.90;;
801;SDS011;383;48.766;9.270;2024-02-26T10:49:12;11.57;;;3.50;;
801;SDS011;383;48.766;9.270;2024-02-26T10:51:40;10.80;;;3.90;;
801;SDS011;383;48.766;9.270;2024-02-26T10:54:10;4.47;;;2.57;;
801;SDS011;383;48.766;9.270;2024-02-26T10:56:39;5.30;;;3.13;;
801;SDS011;383;48.766;9.270;2024-02-26T10:59:10;4.23;;;2.80;;
801;SDS011;383;48.766;9.270;2024-02-26T11:01:37;8.97;;;3.60;;
801;SDS011;383;48.766;9.270;2024-02-26T11:04:06;7.57;;;3.40;;
801;SDS011;383;48.766;9.270;2024-02-26T11:06:33;16.03;;;4.50;;
801;SDS011;383;48.766;9.270;2024-02-26T11:09:01;7.90;;;3.77;;
801;SDS011;383;48.766;9.270;2024-02-26T11:11:28;6.83;;;3.47;;
801;SDS011;383;48.766;9.270;2024-02-26T11:13:55;11.23;;;3.90;;
801;SDS011;383;48.766;9.270;2024-02-26T11:16:24;7.20;;;3.67;;
801;SDS011;383;48.766;9.270;2024-02-26T11:18:53;7.80;;;3.73;;
801;SDS011;383;48.766;9.270;2024-02-26T11:21:20;6.20;;;3.30;;
801;SDS011;383;48.766;9.270;2024-02-26T11:23:52;7.27;;;3.50;;
801;SDS011;383;48.766;9.270;2024-02-26T11:26:19;4.57;;;3.13;;
801;SDS011;383;48.766;9.270;2024-02-26T11:28:46;8.40;;;3.30;;
801;SDS011;383;48.766;9.270;2024-02-26T11:31:14;11.07;;;3.77;;
801;SDS011;383;48.766;9.270;2024-02-26T11:33:44;8.53;;;4.17;;
801;SDS011;383;48.766;9.270;2024-02-26T11:36:11;11.87;;;5.00;;
801;SDS011;383;48.766;9.270;2024-02-26T11:38:39;5.80;;;3.57;;
801;SDS011;383;48.766;9.270;2024-02-26T11:41:06;9.43;;;3.70;;
801;SDS011;383;48.766;9.270;2024-02-26T11:43:52;6.70;;;4.63;;
801;SDS011;383;48.766;9.270;2024-02-26T11:46:28;5.00;;;3.50;;
801;SDS011;383;48.766;9.270;2024-02-26T11:48:57;8.27;;;3.40;;
801;SDS011;383;48.766;9.270;2024-02-26T11:51:25;8.10;;;3.73;;
801;SDS011;383;48.766;9.270;2024-02-26T11:53:52;5.60;;;3.53;;
801;SDS011;383;48.766;9.270;2024-02-26T11:56:22;6.80;;;3.73;;
801;SDS011;383;48.766;9.270;2024-02-26T11:58:53;6.43;;;4.00;;
801;SDS011;383;48.766;9.270;2024-02-26T12:01:39;5.13;;;3.60;;
801;SDS011;383;48.766;9.270;2024-02-26T12:04:09;8.27;;;2.80;;
801;SDS011;383;48.766;9.270;2024-02-26T12:06:41;7.00;;;3.53;;
801;SDS011;383;48.766;9.270;2024-02-26T12:09:08;8.00;;;3.60;;
801;SDS011;383;48.766;9.270;2024-02-26T12:11:37;6.47;;;3.70;;
801;SDS011;383;48.766;9.270;2024-02-26T12:14:05;6.57;;;3.60;;
801;SDS011;383;48.766;9.270;2024-02-26T12:16:36;8.23;;;3.90;;
801;SDS011;383;48.766;9.270;2024-02-26T12:19:03;4.50;;;3.10;;
801;SDS011;383;48.766;9.270;2024-02-26T12:21:32;6.70;;;3.40;;
801;SDS011;383;48.766;9.270;2024-02-26T12:24:07;5.97;;;3.57;;
801;SDS011;383;48.766;9.270;2024-02-26T12:26:34;3.30;;;2.43;;
801;SDS011;383;48.766;9.270;2024-02-26T12:29:01;8.50;;;4.47;;
801;SDS011;383;48.766;9.270;2024-02-26T12:31:28;6.60;;;4.10;;
801;SDS011;383;48.766;9.270;2024-02-26T12:33:56;8.97;;;3.40;;
801;SDS011;383;48.766;9.270;2024-02-26T12:36:24;9.93;;;5.70;;
801;SDS011;383;48.766;9.270;2024-02-26T12:38:52;8.83;;;3.10;;
801;SDS011;383;48.766;9.270;2024-02-26T12:41:20;3.70;;;3.10;;
801;SDS011;383;48.766;9.270;2024-02-26T12:43:47;8.17;;;3.60;;
801;SDS011;383;48.766;9.270;2024-02-26T12:46:14;10.73;;;6.33;;
801;SDS011;383;48.766;9.270;2024-02-26T12:48:42;9.20;;;5.07;;
801;SDS011;383;48.766;9.270;2024-02-26T12:51:09;7.63;;;3.13;;
801;SDS011;383;48.766;9.270;2024-02-26T12:53:37;8.07;;;3.00;;
801;SDS011;383;48.766;9.270;2024-02-26T12:56:06;8.93;;;2.60;;
801;SDS011;383;48.766;9.270;2024-02-26T12:58:34;5.80;;;2.87;;
801;SDS011;383;48.766;9.270;2024-02-26T13:01:03;4.90;;;2.50;;
801;SDS011;383;48.766;9.270;2024-02-26T13:03:30;10.47;;;3.10;;
801;SDS011;383;48.766;9.270;2024-02-26T13:05:57;5.43;;;2.80;;
801;SDS011;383;48.766;9.270;2024-02-26T13:08:24;6.73;;;3.07;;
801;SDS011;383;48.766;9.270;2024-02-26T13:10:51;14.87;;;3.60;;
801;SDS011;383;48.766;9.270;2024-02-26T13:13:20;20.87;;;3.50;;
801;SDS011;383;48.766;9.270;2024-02-26T13:15:47;7.80;;;2.77;;
801;SDS011;383;48.766;9.270;2024-02-26T13:18:14;6.30;;;2.50;;
801;SDS011;383;48.766;9.270;2024-02-26T13:20:41;7.13;;;3.27;;
801;SDS011;383;48.766;9.270;2024-02-26T13:23:10;9.20;;;3.03;;
801;SDS011;383;48.766;9.270;2024-02-26T13:25:38;6.40;;;2.60;;
801;SDS011;383;48.766;9.270;2024-02-26T13:28:06;6.13;;;2.67;;
801;SDS011;383;48.766;9.270;2024-02-26T13:30:35;6.63;;;3.10;;
801;SDS011;383;48.766;9.270;2024-02-26T13:33:08;4.43;;;2.60;;
801;SDS011;383;48.766;9.270;2024-02-26T13:35:36;5.90;;;1.90;;
801;SDS011;383;48.766;9.270;2024-02-26T13:38:04;5.43;;;1.70;;
801;SDS011;383;48.766;9.270;2024-02-26T13:40:31;4.53;;;2.47;;
801;SDS011;383;48.766;9.270;2024-02-26T13:42:58;5.23;;;2.20;;
801;SDS011;383;48.766;9.270;2024-02-26T13:45:25;3.70;;;2.20;;
801;SDS011;383;48.766;9.270;2024-02-26T13:47:54;2.47;;;1.50;;
801;SDS011;383;48.766;9.270;2024-02-26T13:50:28;1.70;;;1.27;;
801;SDS011;383;48.766;9.270;2024-02-26T13:52:55;2.10;;;1.13;;
801;SDS011;383;48.766;9.270;2024-02-26T13:55:22;1.63;;;1.57;;
801;SDS011;383;48.766;9.270;2024-02-26T13:57:51;1.53;;;1.20;;
801;SDS011;383;48.766;9.270;2024-02-26T14:00:19;2.50;;;1.30;;
801;SDS011;383;48.766;9.270;2024-02-26T14:02:46;1.30;;;0.80;;
801;SDS011;383;48.766;9.270;2024-02-26T14:05:14;4.00;;;1.20;;
801;SDS011;383;48.766;9.270;2024-02-26T14:07:41;1.00;;;0.70;;
801;SDS011;383;48.766;9.270;2024-02-26T14:10:08;1.70;;;1.07;;
801;SDS011;383;48.766;9.270;2024-02-26T14:12:36;0.70;;;0.60;;
801;SDS011;383;48.766;9.270;2024-02-26T14:15:04;0.80;;;0.77;;
801;SDS011;383;48.766;9.270;2024-02-26T14:17:32;1.80;;;1.00;;
801;SDS011;383;48.766;9.270;2024-02-26T14:19:59;1.07;;;0.93;;
801;SDS011;383;48.766;9.270;2024-02-26T14:22:27;3.90;;;1.60;;
801;SDS011;383;48.766;9.270;2024-02-26T14:24:55;1.50;;;1.20;;
801;SDS011;383;48.766;9.270;2024-02-26T14:27:22;2.17;;;1.10;;
801;SDS011;383;48.766;9.270;2024-02-26T14:29:49;2.30;;;0.93;;
801;SDS011;383;48.766;9.270;2024-02-26T14:32:16;3.90;;;1.43;;
801;SDS011;383;48.766;9.270;2024-02-26T14:34:43;1.57;;;1.20;;
801;SDS011;383;48.766;9.270;2024-02-26T14:37:10;2.83;;;1.53;;
801;SDS011;383;48.766;9.270;2024-02-26T14:39:38;2.73;;;1.60;;
801;SDS011;383;48.766;9.270;2024-02-26T14:42:06;1.93;;;1.10;;
801;SDS011;383;48.766;9.270;2024-02-26T14:44:33;1.37;;;1.10;;
801;SDS011;383;48.766;9.270;2024-02-26T14:47:00;2.50;;;1.47;;
801;SDS011;383;48.766;9.270;2024-02-26T14:49:27;2.67;;;1.70;;
801;SDS011;383;48.766;9.270;2024-02-26T14:51:55;3.23;;;1.40;;
801;SDS011;383;48.766;9.270;2024-02-26T14:54:22;2.17;;;1.50;;
801;SDS011;383;48.766;9.270;2024-02-26T14:56:51;1.70;;;1.40;;
801;SDS011;383;48.766;9.270;2024-02-26T14:59:18;4.80;;;1.67;;
801;SDS011;383;48.766;9.270;2024-02-26T15:01:45;3.30;;;1.77;;
801;SDS011;383;48.766;9.270;2024-02-26T15:04:12;1.80;;;1.30;;
801;SDS011;383;48.766;9.270;2024-02-26T15:06:39;1.33;;;1.13;;
801;SDS011;383;48.766;9.270;2024-02-26T15:09:06;2.73;;;1.50;;
801;SDS011;383;48.766;9.270;2024-02-26T15:11:33;3.97;;;1.63;;
801;SDS011;383;48.766;9.270;2024-02-26T15:14:01;2.07;;;1.17;;
801;SDS011;383;48.766;9.270;2024-02-26T15:16:28;1.33;;;1.23;;
801;SDS011;383;48.766;9.270;2024-02-26T15:18:55;2.10;;;1.47;;
801;SDS011;383;48.766;9.270;2024-02-26T15:21:22;2.27;;;1.50;;
801;SDS011;383;48.766;9.270;2024-02-26T15:23:50;1.30;;;0.90;;
801;SDS011;383;48.766;9.270;2024-02-26T15:26:19;4.37;;;2.80;;
801;SDS011;383;48.766;9.270;2024-02-26T15:28:47;3.07;;;1.80;;
801;SDS011;383;48.766;9.270;2024-02-26T15:31:16;1.83;;;1.20;;
801;SDS011;383;48.766;9.270;2024-02-26T15:33:44;2.23;;;1.70;;
801;SDS011;383;48.766;9.270;2024-02-26T15:36:11;4.17;;;1.90;;
801;SDS011;383;48.766;9.270;2024-02-26T15:38:38;3.90;;;1.43;;
801;SDS011;383;48.766;9.270;2024-02-26T15:41:10;1.93;;;1.57;;
801;SDS011;383;48.766;9.270;2024-02-26T15:43:38;6.73;;;1.90;;
801;SDS011;383;48.766;9.270;2024-02-26T15:46:05;2.70;;;1.60;;
801;SDS011;383;48.766;9.270;2024-02-26T15:48:35;1.87;;;1.77;;